Time;durP1;ratioP1;P1;durP2;ratioP2;P2;SDS_P1;SDS_P2;PMS_P1;PMS_P2;Temp;Humidity;BMP_temperature;BMP_pressure;BME280_temperature;BME280_humidity;BME280_pressure;Samples;Min_cycle;Max_cycle;Signal;HPM_P1;HPM_P2
2022/03/05 00:00:08;;;;;;;4.20;3.80;;;17.20;48.20;;;;;;5052759;28;20644;-67
2022/03/05 00:02:33;;;;;;;5.63;4.15;;;17.10;48.20;;;;;;5052206;28;20809;-67
2022/03/05 00:04:59;;;;;;;4.50;4.10;;;17.10;48.20;;;;;;5052957;28;20270;-67
2022/03/05 00:07:24;;;;;;;4.22;3.90;;;17.10;48.30;;;;;;5052899;28;20499;-67
2022/03/05 00:09:50;;;;;;;4.57;4.18;;;17.10;48.30;;;;;;5052261;28;20175;-64
2022/03/05 00:12:15;;;;;;;4.10;3.80;;;17.10;48.30;;;;;;5052872;28;20626;-65
2022/03/05 00:14:41;;;;;;;4.68;4.18;;;17.00;48.30;;;;;;5052849;28;20171;-65
2022/03/05 00:17:07;;;;;;;4.60;4.20;;;17.00;48.30;;;;;;5051650;28;20677;-66
2022/03/05 00:19:32;;;;;;;4.85;4.43;;;17.00;48.40;;;;;;5052732;28;20207;-65
2022/03/05 00:21:59;;;;;;;4.18;3.88;;;17.00;48.40;;;;;;5052964;28;20163;-65
2022/03/05 00:24:25;;;;;;;4.75;4.35;;;16.90;48.40;;;;;;5051995;28;20182;-64
2022/03/05 00:26:50;;;;;;;4.25;3.95;;;17.00;48.40;;;;;;5052860;28;20175;-63
2022/03/05 00:29:16;;;;;;;4.63;4.22;;;17.00;48.50;;;;;;5052411;28;20564;-63
2022/03/05 00:31:41;;;;;;;4.75;4.35;;;16.90;48.50;;;;;;5051999;28;20179;-63
2022/03/05 00:34:07;;;;;;;4.82;3.65;;;16.90;48.50;;;;;;5052232;28;20229;-65
2022/03/05 00:36:32;;;;;;;5.82;4.07;;;16.90;48.40;;;;;;5052893;28;20179;-65
2022/03/05 00:38:58;;;;;;;4.63;4.18;;;16.90;48.50;;;;;;5051965;28;20264;-66
2022/03/05 00:41:23;;;;;;;4.40;4.00;;;16.90;48.50;;;;;;5052508;28;20178;-66
2022/03/05 00:43:49;;;;;;;4.40;4.10;;;16.90;48.50;;;;;;5052724;28;20170;-65
2022/03/05 00:46:14;;;;;;;4.85;4.43;;;16.90;48.70;;;;;;5051457;28;20171;-66
2022/03/05 00:48:40;;;;;;;4.38;4.07;;;16.90;48.60;;;;;;5052579;28;20585;-65
2022/03/05 00:51:06;;;;;;;5.15;4.70;;;16.80;48.70;;;;;;5052540;28;20174;-64
2022/03/05 00:53:31;;;;;;;4.22;3.92;;;16.80;48.70;;;;;;5051708;28;20207;-64
2022/03/05 00:55:57;;;;;;;4.30;3.90;;;16.80;48.70;;;;;;5052380;28;20223;-64
2022/03/05 00:58:22;;;;;;;4.57;4.15;;;16.80;48.70;;;;;;5052128;28;20203;-65
2022/03/05 01:00:48;;;;;;;4.25;3.92;;;16.80;48.70;;;;;;5051905;28;20171;-65
2022/03/05 01:03:14;;;;;;;4.22;3.92;;;16.80;48.80;;;;;;5052225;28;20180;-68
2022/03/05 01:05:39;;;;;;;4.45;4.05;;;16.80;48.80;;;;;;5052304;28;20174;-67
2022/03/05 01:08:05;;;;;;;4.95;4.55;;;16.80;48.80;;;;;;5051759;28;20174;-65
2022/03/05 01:10:31;;;;;;;4.28;3.88;;;16.70;48.80;;;;;;5052460;28;20665;-65
2022/03/05 01:12:56;;;;;;;4.55;4.15;;;16.70;48.80;;;;;;5051626;28;20175;-64
2022/03/05 01:15:22;;;;;;;4.55;4.15;;;16.70;48.80;;;;;;5052052;28;20189;-64
2022/03/05 01:17:47;;;;;;;5.28;4.47;;;16.70;48.80;;;;;;5052124;28;20213;-65
2022/03/05 01:20:13;;;;;;;4.55;4.15;;;16.70;48.80;;;;;;5054792;28;20630;-66
2022/03/05 01:22:39;;;;;;;4.30;3.90;;;16.70;48.80;;;;;;5056240;28;20178;-65
2022/03/05 01:25:05;;;;;;;4.35;4.00;;;16.70;48.80;;;;;;5056202;28;20194;-65
2022/03/05 01:27:30;;;;;;;4.35;4.00;;;16.70;48.80;;;;;;5055171;28;20183;-63
2022/03/05 01:29:55;;;;;;;4.45;4.05;;;16.70;48.80;;;;;;5055855;28;20179;-63
2022/03/05 01:32:21;;;;;;;4.60;4.20;;;16.70;48.90;;;;;;5055627;28;20595;-64
2022/03/05 01:34:46;;;;;;;4.50;4.10;;;16.60;48.80;;;;;;5055170;28;20183;-65
2022/03/05 01:37:12;;;;;;;4.72;4.25;;;16.60;48.90;;;;;;5055733;28;20198;-66
2022/03/05 01:39:38;;;;;;;4.75;4.18;;;16.60;48.90;;;;;;5055883;28;20334;-65
2022/03/05 01:42:04;;;;;;;4.57;4.18;;;16.60;48.80;;;;;;5055154;28;20182;-65
2022/03/05 01:44:29;;;;;;;5.05;4.55;;;16.60;48.90;;;;;;5055432;28;20175;-65
2022/03/05 01:46:55;;;;;;;4.82;4.32;;;16.60;48.90;;;;;;5055678;28;20174;-64
2022/03/05 01:49:20;;;;;;;4.80;4.30;;;16.60;48.80;;;;;;5054498;28;20179;-64
2022/03/05 01:51:46;;;;;;;3.92;3.63;;;16.60;48.90;;;;;;5055843;28;20206;-64
2022/03/05 01:54:12;;;;;;;4.30;3.90;;;16.50;48.80;;;;;;5055192;28;20227;-64
2022/03/05 01:56:37;;;;;;;6.35;5.18;;;16.60;48.90;;;;;;5054849;28;20340;-64
2022/03/05 01:59:03;;;;;;;5.13;4.70;;;16.60;48.90;;;;;;5055408;28;20215;-65
2022/03/05 02:01:28;;;;;;;4.78;4.28;;;16.50;48.80;;;;;;5055127;28;20179;-65
2022/03/05 02:03:55;;;;;;;4.88;4.47;;;16.50;48.90;;;;;;5054551;28;20181;-65
2022/03/05 02:06:21;;;;;;;5.35;4.85;;;16.50;48.80;;;;;;5054958;28;20535;-67
2022/03/05 02:08:47;;;;;;;4.82;4.43;;;16.50;48.90;;;;;;5055203;28;20183;-66
2022/03/05 02:11:13;;;;;;;4.80;4.40;;;16.50;48.90;;;;;;5054369;28;20170;-65
2022/03/05 02:13:38;;;;;;;4.47;4.07;;;16.50;48.90;;;;;;5055402;28;20183;-64
2022/03/05 02:16:04;;;;;;;4.65;4.25;;;16.50;48.90;;;;;;5055035;28;20190;-64
2022/03/05 02:18:29;;;;;;;4.70;4.30;;;16.50;48.90;;;;;;5054133;28;20696;-65
2022/03/05 02:20:55;;;;;;;5.43;4.32;;;16.50;49.00;;;;;;5054855;28;20171;-65
2022/03/05 02:23:21;;;;;;;5.13;4.68;;;16.50;48.90;;;;;;5054100;28;20652;-64
2022/03/05 02:25:57;;;;;;;4.38;4.07;;;16.40;48.90;;;;;;5055109;28;20171;-63
2022/03/05 02:28:24;;;;;;;5.20;4.80;;;16.40;48.90;;;;;;5054505;28;20202;-63
2022/03/05 02:30:49;;;;;;;4.38;3.97;;;16.50;49.00;;;;;;5052816;28;20186;-63
2022/03/05 02:33:15;;;;;;;4.80;4.40;;;16.40;48.80;;;;;;5054773;28;20178;-64
2022/03/05 02:35:43;;;;;;;5.82;5.30;;;16.40;48.90;;;;;;5054787;28;20178;-64
2022/03/05 02:38:12;;;;;;;5.22;4.82;;;16.40;49.00;;;;;;5053680;28;20301;-66
2022/03/05 02:40:38;;;;;;;5.75;5.05;;;16.40;48.90;;;;;;5054786;28;20254;-65
2022/03/05 02:43:03;;;;;;;5.22;4.72;;;16.40;48.90;;;;;;5054709;28;20615;-65
2022/03/05 02:45:29;;;;;;;4.72;4.32;;;16.40;49.00;;;;;;5053485;28;20175;-65
2022/03/05 02:47:54;;;;;;;5.57;5.03;;;16.40;49.00;;;;;;5054710;28;20178;-64
2022/03/05 02:50:20;;;;;;;4.85;4.45;;;16.30;48.90;;;;;;5054386;28;20262;-64
2022/03/05 02:52:45;;;;;;;5.25;4.55;;;16.30;48.90;;;;;;5053895;28;20206;-64
2022/03/05 02:55:11;;;;;;;5.13;4.63;;;16.30;49.00;;;;;;5053790;28;20647;-64
2022/03/05 02:57:36;;;;;;;4.80;4.40;;;16.30;48.90;;;;;;5054277;28;20245;-63
2022/03/05 03:00:09;;;;;;;5.32;4.82;;;16.30;48.90;;;;;;5053490;28;20197;-65
2022/03/05 03:02:34;;;;;;;5.70;4.65;;;16.30;49.00;;;;;;5054246;28;20657;-66
2022/03/05 03:05:00;;;;;;;4.97;4.57;;;16.30;49.00;;;;;;5054330;28;20178;-66
2022/03/05 03:07:28;;;;;;;5.15;4.70;;;16.30;48.90;;;;;;5053297;28;20183;-66
2022/03/05 03:09:54;;;;;;;4.97;4.57;;;16.30;49.00;;;;;;5054233;28;20175;-64
2022/03/05 03:12:19;;;;;;;5.18;4.68;;;16.20;48.90;;;;;;5053747;28;20642;-64
2022/03/05 03:14:45;;;;;;;5.50;4.85;;;16.20;48.90;;;;;;5053329;28;20175;-64
2022/03/05 03:17:10;;;;;;;5.88;5.28;;;16.30;49.00;;;;;;5053960;28;20186;-66
2022/03/05 03:19:36;;;;;;;5.70;5.03;;;16.30;49.00;;;;;;5053364;28;20215;-65
2022/03/05 03:22:04;;;;;;;6.53;5.78;;;16.20;48.90;;;;;;5053800;28;20178;-65
2022/03/05 03:24:30;;;;;;;5.28;4.78;;;16.20;48.90;;;;;;5053487;28;20189;-64
2022/03/05 03:26:55;;;;;;;4.53;4.13;;;16.20;48.90;;;;;;5052936;28;20258;-62
2022/03/05 03:29:21;;;;;;;5.75;5.25;;;16.20;49.00;;;;;;5053304;28;20224;-63
2022/03/05 03:31:46;;;;;;;4.93;4.40;;;16.20;49.00;;;;;;5053909;28;20191;-63
2022/03/05 03:34:11;;;;;;;5.47;4.93;;;16.20;49.00;;;;;;5052474;28;20175;-64
2022/03/05 03:36:37;;;;;;;6.13;4.82;;;16.20;49.00;;;;;;5053516;28;20637;-65
2022/03/05 03:39:03;;;;;;;4.65;4.22;;;16.20;49.00;;;;;;5053515;28;20260;-65
2022/03/05 03:41:28;;;;;;;5.65;5.07;;;16.20;49.00;;;;;;5052129;28;20746;-65
2022/03/05 03:43:54;;;;;;;5.38;4.78;;;16.10;48.90;;;;;;5053397;28;20186;-64
2022/03/05 03:46:19;;;;;;;5.25;4.75;;;16.10;48.90;;;;;;5053274;28;20163;-65
2022/03/05 03:48:45;;;;;;;5.57;5.10;;;16.10;49.00;;;;;;5052791;28;20178;-64
2022/03/05 03:51:10;;;;;;;5.25;4.75;;;16.10;48.90;;;;;;5053047;28;20720;-64
2022/03/05 03:53:36;;;;;;;5.78;5.18;;;16.10;49.00;;;;;;5053105;28;20269;-62
2022/03/05 03:56:02;;;;;;;5.55;5.05;;;16.10;49.00;;;;;;5052447;28;20228;-63
2022/03/05 03:58:27;;;;;;;5.55;4.97;;;16.10;49.00;;;;;;5051577;28;20215;-66
2022/03/05 04:00:53;;;;;;;5.80;5.30;;;16.10;49.00;;;;;;5053257;28;20660;-65
2022/03/05 04:03:18;;;;;;;6.20;5.55;;;16.10;49.00;;;;;;5052231;28;20171;-67
2022/03/05 04:05:44;;;;;;;5.70;5.18;;;16.00;49.00;;;;;;5053062;28;20167;-66
2022/03/05 04:10:53;;;;;;;5.80;4.95;;;16.00;49.00;;;;;;5052249;28;20182;-64
2022/03/05 04:13:19;;;;;;;5.57;4.90;;;16.00;49.00;;;;;;5052903;28;20179;-65
2022/03/05 04:15:46;;;;;;;6.03;5.32;;;16.00;49.00;;;;;;5052232;28;20186;-64
2022/03/05 04:18:11;;;;;;;6.35;5.70;;;16.00;49.00;;;;;;5052551;28;20215;-65
2022/03/05 04:20:37;;;;;;;4.90;4.50;;;16.00;49.10;;;;;;5052887;28;20182;-65
2022/03/05 04:23:03;;;;;;;5.97;5.47;;;16.00;49.10;;;;;;5052088;28;20693;-65
2022/03/05 04:25:28;;;;;;;5.90;5.40;;;16.00;49.00;;;;;;5052422;28;20168;-63
2022/03/05 04:27:54;;;;;;;6.20;5.60;;;16.00;49.00;;;;;;5053077;28;20530;-63
2022/03/05 04:30:19;;;;;;;6.45;5.68;;;15.90;49.00;;;;;;5051907;28;20747;-63
2022/03/05 04:32:45;;;;;;;6.20;5.60;;;16.00;49.00;;;;;;5053152;28;20250;-64
2022/03/05 04:35:11;;;;;;;6.15;5.63;;;15.90;49.00;;;;;;5052477;28;20550;-66
2022/03/05 04:37:37;;;;;;;5.90;5.40;;;15.90;49.00;;;;;;5051778;28;20630;-65
2022/03/05 04:40:03;;;;;;;5.75;5.15;;;15.90;49.00;;;;;;5052627;28;20179;-65
2022/03/05 04:42:32;;;;;;;6.18;5.35;;;15.90;49.00;;;;;;5052491;28;20186;-66
2022/03/05 04:44:58;;;;;;;5.57;5.07;;;15.90;49.00;;;;;;5051840;28;20511;-65
2022/03/05 04:47:24;;;;;;;5.57;5.07;;;15.90;49.10;;;;;;5052270;28;20563;-65
2022/03/05 04:49:49;;;;;;;6.28;5.68;;;15.90;49.00;;;;;;5052731;28;20212;-64
2022/03/05 04:52:15;;;;;;;6.00;5.40;;;15.90;49.00;;;;;;5051497;28;20526;-64
2022/03/05 04:54:40;;;;;;;6.20;5.60;;;15.90;49.10;;;;;;5054854;28;20246;-64
2022/03/05 04:57:06;;;;;;;6.80;6.10;;;15.90;49.10;;;;;;5056676;28;20179;-65
2022/03/05 04:59:31;;;;;;;6.25;5.65;;;15.80;49.00;;;;;;5055938;28;20237;-65
2022/03/05 05:01:57;;;;;;;6.03;5.53;;;15.90;49.00;;;;;;5056472;28;20186;-65
2022/03/05 05:04:23;;;;;;;6.40;5.75;;;15.80;49.10;;;;;;5056193;28;20171;-66
2022/03/05 05:06:48;;;;;;;6.10;5.50;;;15.80;49.00;;;;;;5055665;28;20181;-66
2022/03/05 05:09:16;;;;;;;6.85;6.25;;;15.80;49.10;;;;;;5055991;28;20175;-65
2022/03/05 05:11:42;;;;;;;7.03;6.10;;;15.80;49.00;;;;;;5056578;28;20167;-65
2022/03/05 05:14:08;;;;;;;6.22;5.63;;;15.80;49.70;;;;;;5055326;28;20167;-65
2022/03/05 05:16:34;;;;;;;6.07;5.47;;;15.80;49.00;;;;;;5056404;28;20178;-64
2022/03/05 05:21:43;;;;;;;7.00;6.32;;;15.80;49.10;;;;;;5056049;28;20177;-64
2022/03/05 05:24:09;;;;;;;6.15;5.55;;;15.80;49.10;;;;;;5056128;28;20168;-65
2022/03/05 05:26:34;;;;;;;5.90;5.30;;;15.70;49.60;;;;;;5055477;28;20163;-64
2022/03/05 05:29:00;;;;;;;6.65;5.95;;;15.70;49.00;;;;;;5056152;28;20198;-63
2022/03/05 05:31:32;;;;;;;6.35;5.75;;;15.70;49.10;;;;;;5055641;28;20202;-63
2022/03/05 05:33:57;;;;;;;6.07;5.53;;;15.70;49.00;;;;;;5055164;28;20232;-64
2022/03/05 05:36:23;;;;;;;7.00;6.32;;;15.70;49.00;;;;;;5055401;28;20167;-66
2022/03/05 05:38:48;;;;;;;6.40;5.80;;;15.70;49.10;;;;;;5055659;28;20555;-66
2022/03/05 05:41:15;;;;;;;6.10;5.47;;;15.70;49.10;;;;;;5054842;28;20175;-65
2022/03/05 05:43:40;;;;;;;6.38;5.70;;;15.70;49.10;;;;;;5055930;28;20186;-65
2022/03/05 05:46:06;;;;;;;6.63;5.93;;;15.70;49.00;;;;;;5055495;28;20171;-64
2022/03/05 05:48:31;;;;;;;6.35;5.75;;;15.60;49.00;;;;;;5055079;28;20183;-65
2022/03/05 05:50:57;;;;;;;6.15;5.55;;;15.70;49.00;;;;;;5055425;28;20183;-64
2022/03/05 05:53:23;;;;;;;6.88;5.95;;;15.70;49.10;;;;;;5055288;28;20624;-64
2022/03/05 05:55:48;;;;;;;7.78;6.97;;;15.70;49.10;;;;;;5054622;28;20222;-64
2022/03/05 05:58:14;;;;;;;6.53;5.93;;;15.60;49.00;;;;;;5055107;28;20215;-64
2022/03/05 06:00:39;;;;;;;6.55;5.95;;;15.60;49.10;;;;;;5055458;28;20244;-65
2022/03/05 06:03:05;;;;;;;7.07;6.38;;;15.70;49.10;;;;;;5054676;28;20172;-66
2022/03/05 06:05:33;;;;;;;6.90;6.20;;;15.70;49.00;;;;;;5054920;28;20171;-66
2022/03/05 06:07:59;;;;;;;7.47;6.60;;;15.70;48.80;;;;;;5055226;28;20626;-66
2022/03/05 06:10:24;;;;;;;7.10;6.15;;;15.80;48.80;;;;;;5054349;28;20258;-64
2022/03/05 06:12:50;;;;;;;6.45;5.75;;;15.80;48.40;;;;;;5055280;28;20607;-65
2022/03/05 06:15:15;;;;;;;7.13;6.43;;;15.90;48.40;;;;;;5054350;28;20179;-65
2022/03/05 06:17:42;;;;;;;6.05;5.45;;;16.00;48.50;;;;;;5055179;28;20175;-65
2022/03/05 06:20:08;;;;;;;5.60;5.13;;;16.10;48.40;;;;;;5054543;28;20657;-66
2022/03/05 06:22:33;;;;;;;6.18;5.57;;;16.10;48.40;;;;;;5054632;28;20313;-64
2022/03/05 06:24:59;;;;;;;7.97;6.00;;;16.20;48.40;;;;;;5054965;28;20183;-64
2022/03/05 06:27:24;;;;;;;6.45;5.80;;;16.20;48.30;;;;;;5054683;28;21195;-63
2022/03/05 06:29:50;;;;;;;6.35;5.55;;;16.30;48.30;;;;;;5054422;28;20183;-63
2022/03/05 06:32:15;;;;;;;6.28;5.65;;;16.30;48.30;;;;;;5054534;28;20206;-65
2022/03/05 06:34:41;;;;;;;6.03;5.43;;;16.30;48.10;;;;;;5054726;28;20249;-65
2022/03/05 06:37:06;;;;;;;5.95;5.35;;;16.30;48.10;;;;;;5053935;28;20282;-67
2022/03/05 06:39:32;;;;;;;6.30;5.70;;;16.30;48.10;;;;;;5054796;28;20218;-67
2022/03/05 06:41:57;;;;;;;5.97;5.38;;;16.30;48.20;;;;;;5054754;28;20199;-66
2022/03/05 06:44:23;;;;;;;6.03;5.43;;;16.20;48.10;;;;;;5053550;28;20186;-66
2022/03/05 06:46:48;;;;;;;6.22;5.65;;;16.20;48.10;;;;;;5054570;28;20545;-65
2022/03/05 06:49:14;;;;;;;6.03;5.43;;;16.20;48.20;;;;;;5054145;28;20171;-64
2022/03/05 06:51:39;;;;;;;5.90;5.30;;;16.20;48.30;;;;;;5054000;28;20638;-65
2022/03/05 06:54:05;;;;;;;6.70;6.00;;;16.20;48.30;;;;;;5054384;28;20712;-64
2022/03/05 06:56:30;;;;;;;6.18;5.57;;;16.20;48.30;;;;;;5054368;28;20175;-65
2022/03/05 06:58:56;;;;;;;5.88;5.28;;;16.30;48.30;;;;;;5053323;28;20218;-64
2022/03/05 07:01:21;;;;;;;6.40;5.80;;;16.40;48.30;;;;;;5054010;28;20182;-67
2022/03/05 07:03:47;;;;;;;5.82;5.22;;;16.50;48.20;;;;;;5054202;28;20186;-67
2022/03/05 07:06:12;;;;;;;5.65;5.15;;;16.50;48.10;;;;;;5053146;28;20630;-67
2022/03/05 07:08:38;;;;;;;5.25;4.75;;;16.70;48.00;;;;;;5054271;28;20221;-66
2022/03/05 07:11:06;;;;;;;6.15;5.55;;;16.80;47.80;;;;;;5054191;28;20202;-64
2022/03/05 07:13:32;;;;;;;6.40;5.28;;;16.90;47.50;;;;;;5053296;28;20187;-65
2022/03/05 07:15:57;;;;;;;6.85;6.07;;;16.90;47.50;;;;;;5053704;28;20175;-65
2022/03/05 07:18:23;;;;;;;6.10;5.50;;;16.90;47.40;;;;;;5053314;28;20207;-66
2022/03/05 07:20:48;;;;;;;6.10;5.38;;;17.00;47.50;;;;;;5053453;28;20232;-65
2022/03/05 07:23:14;;;;;;;5.20;4.70;;;17.10;47.40;;;;;;5053483;28;20514;-65
2022/03/05 07:25:39;;;;;;;6.35;5.75;;;17.20;47.30;;;;;;5053251;28;20171;-63
2022/03/05 07:28:09;;;;;;;5.32;4.82;;;17.30;47.20;;;;;;5053845;28;20168;-64
2022/03/05 07:30:35;;;;;;;5.40;4.90;;;17.40;47.10;;;;;;5053836;28;20213;-63
2022/03/05 07:33:01;;;;;;;4.88;4.40;;;17.50;47.00;;;;;;5052963;28;20661;-65
2022/03/05 07:35:26;;;;;;;4.75;4.35;;;17.60;46.80;;;;;;5053621;28;20179;-68
2022/03/05 07:37:52;;;;;;;5.60;5.10;;;17.80;46.60;;;;;;5053564;28;20178;-67
2022/03/05 07:40:18;;;;;;;5.95;5.18;;;17.90;46.50;;;;;;5052469;28;20182;-68
2022/03/05 07:42:43;;;;;;;5.68;5.07;;;18.00;46.50;;;;;;5053530;28;20207;-68
2022/03/05 07:45:09;;;;;;;5.63;5.13;;;18.10;46.30;;;;;;5053201;28;20178;-67
2022/03/05 07:47:34;;;;;;;5.68;5.05;;;18.10;46.20;;;;;;5052614;28;20175;-66
2022/03/05 07:50:01;;;;;;;6.15;5.00;;;18.20;46.20;;;;;;5053164;28;20178;-66
2022/03/05 07:52:26;;;;;;;6.38;5.20;;;18.20;46.30;;;;;;5052955;28;20182;-67
2022/03/05 07:54:52;;;;;;;7.38;5.50;;;18.30;46.40;;;;;;5052183;28;20230;-67
2022/03/05 07:57:17;;;;;;;5.68;5.18;;;18.40;46.40;;;;;;5052627;28;20182;-68
2022/03/05 07:59:43;;;;;;;6.53;5.13;;;18.40;46.20;;;;;;5052862;28;20685;-68
2022/03/05 08:02:08;;;;;;;6.47;5.60;;;18.50;46.60;;;;;;5045156;28;20214;-67
2022/03/05 08:04:34;;;;;;;6.63;5.20;;;18.40;46.50;;;;;;5041815;28;20267;-68
2022/03/05 08:06:59;;;;;;;9.23;5.63;;;18.40;46.60;;;;;;5046709;28;20269;-68
2022/03/05 08:09:25;;;;;;;6.70;5.80;;;18.40;46.60;;;;;;5052101;28;20507;-68
2022/03/05 08:11:50;;;;;;;6.05;5.18;;;18.40;46.70;;;;;;5034305;28;20180;-69
2022/03/05 08:14:16;;;;;;;8.52;5.35;;;18.40;46.80;;;;;;5032511;28;20180;-69
2022/03/05 08:16:41;;;;;;;5.82;5.20;;;18.40;46.80;;;;;;5032132;28;20234;-70
2022/03/05 08:19:07;;;;;;;6.40;5.43;;;18.40;46.90;;;;;;5040160;28;20214;-69
2022/03/05 08:21:33;;;;;;;6.20;5.60;;;18.40;46.90;;;;;;5052265;28;20198;-70
2022/03/05 08:23:58;;;;;;;8.00;5.53;;;18.40;47.00;;;;;;5052015;28;20221;-71
2022/03/05 08:26:24;;;;;;;6.68;5.72;;;18.50;47.00;;;;;;5052297;28;20210;-69
2022/03/05 08:28:49;;;;;;;6.07;5.47;;;18.50;47.00;;;;;;5051376;28;20304;-70
2022/03/05 08:31:15;;;;;;;7.03;5.88;;;18.50;46.90;;;;;;5051412;28;20293;-69
2022/03/05 08:33:40;;;;;;;7.88;5.78;;;18.50;46.90;;;;;;5052564;28;20173;-68
2022/03/05 08:36:06;;;;;;;6.70;5.68;;;18.60;46.80;;;;;;5051724;28;20178;-68
2022/03/05 08:38:36;;;;;;;6.35;5.47;;;18.60;46.70;;;;;;5052457;28;20210;-68
2022/03/05 08:41:02;;;;;;;6.53;5.43;;;18.60;46.80;;;;;;5052654;28;20191;-69
2022/03/05 08:43:27;;;;;;;7.22;6.07;;;18.70;46.80;;;;;;5051519;28;20265;-68
2022/03/05 08:45:53;;;;;;;7.25;5.53;;;18.70;46.80;;;;;;5052324;28;20194;-69
2022/03/05 08:48:22;;;;;;;6.45;5.30;;;18.70;46.80;;;;;;5052311;28;20221;-69
2022/03/05 08:50:47;;;;;;;6.75;5.55;;;18.70;46.80;;;;;;5051685;28;20171;-71
2022/03/05 08:53:16;;;;;;;5.60;4.80;;;18.70;46.80;;;;;;5052088;28;20187;-68
2022/03/05 08:55:41;;;;;;;6.25;5.38;;;18.70;46.80;;;;;;5052096;28;20369;-66
2022/03/05 08:58:07;;;;;;;9.68;6.15;;;18.80;46.80;;;;;;5051163;28;20353;-66
2022/03/05 09:00:32;;;;;;;7.85;6.10;;;18.80;46.80;;;;;;5052380;28;20163;-65
2022/03/05 09:02:58;;;;;;;7.00;6.28;;;18.80;46.70;;;;;;5052295;28;20183;-66
2022/03/05 09:05:23;;;;;;;7.13;5.68;;;18.80;46.60;;;;;;5051099;28;20682;-66
2022/03/05 09:07:49;;;;;;;7.85;5.65;;;18.80;46.50;;;;;;5052265;28;20188;-66
2022/03/05 09:10:14;;;;;;;11.30;6.22;;;18.80;46.60;;;;;;5051671;28;20228;-69
2022/03/05 09:12:40;;;;;;;6.45;5.65;;;18.70;46.60;;;;;;5051467;28;20171;-67
2022/03/05 09:15:06;;;;;;;6.55;5.82;;;18.70;46.70;;;;;;5051748;28;20178;-68
2022/03/05 09:17:34;;;;;;;6.80;6.07;;;18.70;46.70;;;;;;5051443;28;20213;-67
2022/03/05 09:20:00;;;;;;;7.25;6.30;;;18.60;46.80;;;;;;5051472;28;20576;-68
2022/03/05 09:22:25;;;;;;;7.88;6.43;;;18.60;46.90;;;;;;5051834;28;20182;-69
2022/03/05 09:24:51;;;;;;;5.93;5.32;;;18.60;47.00;;;;;;5051932;28;20669;-69
2022/03/05 09:27:16;;;;;;;5.80;5.25;;;18.60;47.00;;;;;;5051233;28;20167;-69
2022/03/05 09:29:42;;;;;;;6.60;5.78;;;18.60;46.90;;;;;;5052002;28;20241;-68
2022/03/05 09:32:08;;;;;;;6.85;6.13;;;18.60;47.00;;;;;;5051827;28;20280;-67
2022/03/05 09:34:34;;;;;;;7.82;6.00;;;18.50;47.00;;;;;;5050078;28;20562;-66
2022/03/05 09:37:00;;;;;;;9.40;6.00;;;18.50;47.10;;;;;;5051994;28;20264;-66
2022/03/05 09:39:28;;;;;;;7.70;5.63;;;18.40;47.20;;;;;;5051231;28;20214;-68
2022/03/05 09:41:54;;;;;;;8.50;5.78;;;18.40;47.30;;;;;;5055509;28;20172;-67
2022/03/05 09:44:19;;;;;;;6.90;6.20;;;18.40;47.30;;;;;;5055422;28;20175;-69
2022/03/05 09:46:45;;;;;;;7.30;6.28;;;18.40;47.40;;;;;;5055022;28;20183;-70
2022/03/05 09:49:11;;;;;;;7.75;5.93;;;18.50;47.40;;;;;;5053970;28;20171;-67
2022/03/05 09:51:36;;;;;;;7.72;6.18;;;18.50;47.50;;;;;;5054242;28;20171;-68
2022/03/05 09:54:05;;;;;;;6.78;6.07;;;18.50;47.40;;;;;;5054501;28;20219;-67
2022/03/05 09:56:31;;;;;;;6.50;5.80;;;18.50;47.40;;;;;;5055242;28;20179;-68
2022/03/05 09:58:56;;;;;;;7.20;5.90;;;18.50;47.50;;;;;;5055003;28;20577;-67
2022/03/05 10:01:22;;;;;;;6.72;5.82;;;18.40;47.40;;;;;;5054042;28;20638;-67
2022/03/05 10:03:49;;;;;;;7.32;6.57;;;18.40;47.40;;;;;;5055076;28;20269;-67
2022/03/05 10:06:21;;;;;;;6.60;5.97;;;18.40;47.50;;;;;;5054736;28;20654;-66
2022/03/05 10:08:47;;;;;;;7.05;6.32;;;18.40;47.50;;;;;;5054565;28;20182;-67
2022/03/05 10:11:13;;;;;;;5.97;5.38;;;18.40;47.60;;;;;;5039054;28;20524;-67
2022/03/05 10:13:40;;;;;;;7.28;5.72;;;18.40;47.60;;;;;;5035245;28;20255;-68
2022/03/05 10:16:07;;;;;;;6.57;5.97;;;18.40;47.60;;;;;;5034196;28;20678;-68
2022/03/05 10:18:37;;;;;;;5.85;5.18;;;18.40;47.60;;;;;;5035064;28;20278;-67
2022/03/05 10:21:07;;;;;;;6.75;5.68;;;18.40;47.60;;;;;;5035187;28;20230;-67
2022/03/05 10:23:37;;;;;;;6.63;5.97;;;18.40;47.60;;;;;;5034105;28;20267;-68
2022/03/05 10:26:04;;;;;;;7.05;6.05;;;18.40;47.60;;;;;;5035088;28;20254;-68
2022/03/05 10:28:30;;;;;;;7.70;6.00;;;18.40;47.60;;;;;;5033920;28;20206;-67
2022/03/05 10:31:09;;;;;;;6.85;5.78;;;18.40;47.60;;;;;;5034844;28;20191;-67
2022/03/05 10:33:45;;;;;;;7.60;6.32;;;18.40;47.60;;;;;;5034664;28;20666;-67
2022/03/05 10:36:23;;;;;;;7.25;6.55;;;18.40;47.60;;;;;;5033651;28;20585;-67
2022/03/05 10:38:59;;;;;;;6.85;5.47;;;18.50;47.60;;;;;;5034377;28;20759;-66
2022/03/05 10:41:38;;;;;;;6.57;5.90;;;18.40;47.70;;;;;;5034404;28;20175;-67
2022/03/05 10:44:06;;;;;;;6.22;5.63;;;18.40;47.70;;;;;;5033917;28;20172;-67
2022/03/05 10:46:46;;;;;;;8.35;6.18;;;18.40;47.70;;;;;;5034430;28;20225;-68
2022/03/05 10:49:19;;;;;;;7.18;6.20;;;18.50;47.70;;;;;;5034344;28;20272;-67
2022/03/05 10:51:49;;;;;;;6.65;5.93;;;18.50;47.70;;;;;;5032818;28;20179;-67
2022/03/05 10:54:28;;;;;;;7.43;6.50;;;18.50;47.60;;;;;;5033810;28;20258;-67
2022/03/05 10:56:56;;;;;;;6.72;6.00;;;18.50;47.70;;;;;;5033547;28;20184;-66
2022/03/05 10:59:22;;;;;;;5.88;5.15;;;18.50;47.70;;;;;;5033509;28;20219;-66
2022/03/05 11:01:48;;;;;;;7.30;6.40;;;18.50;47.70;;;;;;5034452;28;20172;-67
2022/03/05 11:04:13;;;;;;;6.93;6.20;;;18.50;47.70;;;;;;5033031;28;20548;-66
2022/03/05 11:06:41;;;;;;;6.72;6.03;;;18.50;47.70;;;;;;5033950;28;20187;-66
2022/03/05 11:09:07;;;;;;;6.90;5.90;;;18.50;47.70;;;;;;5033766;28;20175;-67
2022/03/05 11:11:35;;;;;;;6.93;6.18;;;18.50;47.70;;;;;;5051376;28;20238;-68
2022/03/05 11:14:01;;;;;;;7.05;6.20;;;18.50;47.70;;;;;;5054020;28;20489;-67
2022/03/05 11:16:26;;;;;;;7.45;6.00;;;18.50;47.70;;;;;;5052417;28;20642;-67
2022/03/05 11:18:52;;;;;;;6.75;6.05;;;18.50;47.70;;;;;;5051847;28;20207;-68
2022/03/05 11:21:17;;;;;;;7.55;6.53;;;18.50;47.70;;;;;;5053478;28;20226;-66
2022/03/05 11:23:43;;;;;;;7.63;6.45;;;18.50;47.70;;;;;;5053615;28;20167;-67
2022/03/05 11:26:09;;;;;;;6.97;6.28;;;18.50;47.80;;;;;;5051237;28;20182;-67
2022/03/05 11:28:39;;;;;;;7.75;5.93;;;18.50;47.80;;;;;;5052273;28;20179;-66
2022/03/05 11:31:21;;;;;;;6.75;6.05;;;18.50;47.80;;;;;;5053717;28;20183;-64
2022/03/05 11:33:47;;;;;;;7.68;5.97;;;18.50;47.80;;;;;;5052957;28;20179;-63
2022/03/05 11:36:23;;;;;;;6.95;5.57;;;18.60;47.80;;;;;;5053181;28;20171;-63
2022/03/05 11:38:50;;;;;;;8.27;5.40;;;18.50;47.70;;;;;;5052568;28;20656;-63
2022/03/05 11:41:21;;;;;;;7.15;5.90;;;18.50;47.70;;;;;;5051611;28;20244;-65
2022/03/05 11:43:47;;;;;;;7.05;6.20;;;18.50;47.70;;;;;;5053449;28;20176;-66
2022/03/05 11:46:27;;;;;;;6.93;6.22;;;18.60;48.30;;;;;;5052537;28;20179;-66
2022/03/05 11:49:03;;;;;;;7.13;6.43;;;18.60;47.70;;;;;;5053238;28;20267;-65
2022/03/05 11:51:51;;;;;;;6.65;5.88;;;18.60;47.70;;;;;;5052816;28;20662;-66
2022/03/05 11:54:19;;;;;;;6.85;6.05;;;18.60;47.60;;;;;;5052115;28;20241;-66
2022/03/05 11:57:08;;;;;;;8.40;6.38;;;18.60;47.60;;;;;;5053164;28;20178;-65
2022/03/05 11:59:35;;;;;;;9.15;6.30;;;18.60;47.60;;;;;;5052597;28;20207;-65
2022/03/05 12:02:00;;;;;;;6.95;5.70;;;18.60;47.70;;;;;;5052394;28;20182;-64
2022/03/05 12:04:28;;;;;;;5.93;5.28;;;18.60;47.60;;;;;;5052667;28;20638;-65
2022/03/05 12:07:01;;;;;;;7.15;6.45;;;18.60;47.70;;;;;;5053000;28;20258;-64
2022/03/05 12:09:37;;;;;;;6.85;6.13;;;18.60;47.70;;;;;;5051764;28;20183;-65
2022/03/05 12:12:04;;;;;;;6.68;6.07;;;18.60;47.80;;;;;;5033113;28;20190;-67
2022/03/05 12:15:07;;;;;;;7.90;6.70;;;18.60;47.70;;;;;;5031554;28;20536;-66
2022/03/05 12:17:33;;;;;;;6.63;6.00;;;18.60;47.70;;;;;;5032994;28;20197;-66
2022/03/05 12:19:59;;;;;;;7.38;5.97;;;18.60;47.80;;;;;;5032617;28;20219;-66
2022/03/05 12:22:24;;;;;;;6.45;5.70;;;18.60;47.80;;;;;;5031785;28;20171;-66
2022/03/05 12:24:50;;;;;;;7.03;6.32;;;18.50;47.80;;;;;;5032744;28;20171;-66
2022/03/05 12:27:17;;;;;;;6.32;5.50;;;18.50;47.80;;;;;;5032640;28;20553;-65
2022/03/05 12:29:49;;;;;;;6.63;5.78;;;18.50;47.80;;;;;;5032220;28;20657;-64
2022/03/05 12:32:15;;;;;;;6.68;5.88;;;18.50;47.90;;;;;;5032498;28;20180;-66
2022/03/05 12:34:40;;;;;;;7.70;6.05;;;18.50;47.90;;;;;;5032683;28;20176;-65
2022/03/05 12:37:06;;;;;;;7.30;6.13;;;18.50;48.60;;;;;;5031708;28;20172;-69
2022/03/05 12:39:31;;;;;;;9.93;7.57;;;18.50;47.90;;;;;;5032867;28;20574;-69
2022/03/05 12:41:57;;;;;;;7.50;6.00;;;18.50;47.70;;;;;;5032509;28;20241;-68
2022/03/05 12:44:22;;;;;;;7.05;5.65;;;18.40;47.90;;;;;;5031799;28;20188;-69
2022/03/05 12:46:48;;;;;;;8.98;6.78;;;18.40;47.90;;;;;;5032638;28;20184;-68
2022/03/05 12:49:14;;;;;;;8.43;6.50;;;18.40;47.90;;;;;;5013968;28;20277;-67